Time;durP1;ratioP1;P1;durP2;ratioP2;P2;SDS_P1;SDS_P2;PMS_P1;PMS_P2;Temp;Humidity;BMP_temperature;BMP_pressure;BME280_temperature;BME280_humidity;BME280_pressure;Samples;Min_cycle;Max_cycle;Signal;HPM_P1;HPM_P2
2023/09/30 00:00:27;;;;;;;1.60;1.50;;;16.70;99.90;;;;;;5012136;28;20440;-74
2023/09/30 00:02:52;;;;;;;2.40;1.33;;;16.70;99.90;;;;;;5012064;28;20428;-75
2023/09/30 00:05:20;;;;;;;5.10;1.90;;;16.80;99.90;;;;;;5012014;28;20414;-75
2023/09/30 00:07:46;;;;;;;2.70;1.27;;;16.70;99.90;;;;;;5012070;28;20205;-75
2023/09/30 00:10:12;;;;;;;4.17;1.70;;;16.80;99.90;;;;;;5012319;28;20430;-74
2023/09/30 00:12:38;;;;;;;9.13;1.67;;;16.80;99.90;;;;;;5011587;28;20421;-74
2023/09/30 00:15:04;;;;;;;3.57;1.67;;;16.70;99.90;;;;;;5011081;28;20549;-74
2023/09/30 00:17:30;;;;;;;4.17;1.63;;;16.60;99.90;;;;;;5011725;28;20273;-74
2023/09/30 00:19:55;;;;;;;6.23;2.07;;;16.50;99.90;;;;;;5011944;28;21016;-74
2023/09/30 00:22:21;;;;;;;6.10;1.90;;;16.40;99.90;;;;;;5011764;28;20175;-73
2023/09/30 00:24:47;;;;;;;3.70;1.97;;;16.30;99.90;;;;;;5011700;28;20185;-74
2023/09/30 00:27:12;;;;;;;6.27;1.90;;;16.30;99.90;;;;;;5011551;28;20233;-74
2023/09/30 00:29:38;;;;;;;7.40;2.37;;;16.20;99.90;;;;;;5011730;28;20262;-73
2023/09/30 00:32:04;;;;;;;6.13;2.03;;;16.10;99.90;;;;;;5011622;28;20178;-72
2023/09/30 00:34:35;;;;;;;5.40;2.40;;;16.10;99.90;;;;;;5011438;28;20269;-74
2023/09/30 00:37:02;;;;;;;7.30;2.40;;;16.00;99.90;;;;;;5011533;28;20212;-73
2023/09/30 00:39:30;;;;;;;5.57;2.20;;;15.90;99.90;;;;;;5011602;28;20504;-73
2023/09/30 00:41:59;;;;;;;5.30;1.67;;;15.80;99.90;;;;;;5011337;28;20514;-73
2023/09/30 00:44:26;;;;;;;3.43;1.87;;;15.70;99.90;;;;;;5083226;23;20854;-69
2023/09/30 00:46:51;;;;;;;10.60;2.57;;;15.70;99.90;;;;;;5069784;28;20416;-70
2023/09/30 00:49:18;;;;;;;3.73;2.10;;;15.60;99.90;;;;;;5070158;28;20455;-69
2023/09/30 00:51:47;;;;;;;7.10;2.83;;;15.50;99.90;;;;;;5069788;28;20233;-71
2023/09/30 00:54:13;;;;;;;6.90;2.23;;;15.50;99.90;;;;;;5086032;28;20438;-70
2023/09/30 00:56:45;;;;;;;4.00;2.20;;;15.40;99.90;;;;;;5090674;28;20435;-70
2023/09/30 00:59:11;;;;;;;4.57;2.03;;;15.40;99.90;;;;;;5090201;28;20548;-69
2023/09/30 01:01:37;;;;;;;9.93;2.43;;;15.30;99.90;;;;;;5089917;28;20420;-70
2023/09/30 01:04:03;;;;;;;3.17;2.13;;;15.20;99.90;;;;;;5089735;28;20424;-70
2023/09/30 01:06:28;;;;;;;6.00;2.83;;;15.20;99.90;;;;;;5089912;28;20183;-70
2023/09/30 01:08:54;;;;;;;7.07;2.27;;;15.10;99.90;;;;;;5089916;28;20207;-70
2023/09/30 01:11:21;;;;;;;7.30;2.50;;;15.10;99.90;;;;;;5077054;28;20636;-69
2023/09/30 01:13:47;;;;;;;5.57;2.40;;;15.00;99.90;;;;;;5069479;28;20188;-69
2023/09/30 01:16:13;;;;;;;5.40;2.17;;;15.00;99.90;;;;;;5081563;28;20409;-69
2023/09/30 01:18:42;;;;;;;5.23;2.70;;;14.90;99.90;;;;;;5081512;28;20471;-71
2023/09/30 01:21:08;;;;;;;5.23;2.10;;;14.90;99.90;;;;;;5051551;28;20187;-69
2023/09/30 01:23:35;;;;;;;7.60;2.00;;;14.80;99.90;;;;;;5069429;28;20458;-69
2023/09/30 01:26:06;;;;;;;6.93;2.83;;;14.80;99.90;;;;;;5070933;28;20504;-69
2023/09/30 01:28:32;;;;;;;5.93;2.30;;;14.80;99.90;;;;;;5073120;28;20454;-71
2023/09/30 01:30:58;;;;;;;4.97;2.10;;;14.80;99.90;;;;;;5073109;28;20574;-69
2023/09/30 01:33:24;;;;;;;8.30;3.20;;;14.70;99.90;;;;;;5073423;28;20237;-69
2023/09/30 01:35:49;;;;;;;7.10;2.13;;;14.70;99.90;;;;;;5073177;28;20900;-69
2023/09/30 01:38:15;;;;;;;10.80;3.50;;;14.60;99.90;;;;;;5073270;28;20485;-70
2023/09/30 01:40:42;;;;;;;10.80;2.73;;;14.60;99.90;;;;;;5073509;28;20178;-70
2023/09/30 01:43:08;;;;;;;5.37;2.73;;;14.50;99.90;;;;;;5073004;28;20207;-69
2023/09/30 01:45:35;;;;;;;4.10;1.80;;;14.50;99.90;;;;;;5073113;28;20985;-70
2023/09/30 01:48:01;;;;;;;9.57;3.10;;;14.50;99.90;;;;;;5072749;28;20459;-71
2023/09/30 01:50:26;;;;;;;9.57;2.97;;;14.50;99.90;;;;;;5073833;28;20409;-69
2023/09/30 01:52:52;;;;;;;6.23;3.00;;;14.40;99.90;;;;;;5073614;28;20433;-70
2023/09/30 01:55:17;;;;;;;3.93;2.50;;;14.40;99.90;;;;;;5073505;28;20220;-69
2023/09/30 01:57:43;;;;;;;8.23;2.67;;;14.40;99.90;;;;;;5073099;28;20186;-69
2023/09/30 02:00:09;;;;;;;5.30;2.53;;;14.40;99.90;;;;;;5081204;28;20446;-71
2023/09/30 02:02:36;;;;;;;5.33;3.03;;;14.30;99.90;;;;;;5054761;28;20665;-71
2023/09/30 02:05:02;;;;;;;8.63;3.57;;;14.20;99.90;;;;;;5072736;28;20421;-71
2023/09/30 02:07:29;;;;;;;6.40;3.20;;;14.20;99.90;;;;;;5072655;28;20551;-70
2023/09/30 02:09:55;;;;;;;8.03;2.50;;;14.20;99.90;;;;;;5080738;28;20412;-70
2023/09/30 02:12:20;;;;;;;7.60;2.67;;;14.10;99.90;;;;;;5072345;28;20707;-69
2023/09/30 02:14:46;;;;;;;10.10;2.80;;;14.10;99.90;;;;;;5072428;28;20178;-70
2023/09/30 02:17:13;;;;;;;17.30;3.93;;;14.10;99.90;;;;;;5075376;28;20172;-70
2023/09/30 02:19:40;;;;;;;10.33;3.63;;;14.00;99.90;;;;;;5077469;28;20258;-68
2023/09/30 02:22:06;;;;;;;7.90;2.60;;;14.10;99.90;;;;;;5072134;28;20818;-69
2023/09/30 02:24:32;;;;;;;7.70;2.33;;;14.00;99.90;;;;;;5072600;28;20479;-69
2023/09/30 02:26:58;;;;;;;7.90;2.53;;;14.00;99.90;;;;;;5054255;28;20780;-69
2023/09/30 02:29:24;;;;;;;10.20;3.10;;;13.90;99.90;;;;;;5072263;28;20526;-69
2023/09/30 02:31:50;;;;;;;9.20;3.40;;;13.80;99.90;;;;;;5053969;28;20206;-69
2023/09/30 02:34:16;;;;;;;8.63;3.00;;;13.80;99.90;;;;;;5071986;28;20513;-69
2023/09/30 02:36:42;;;;;;;8.60;3.43;;;13.80;99.90;;;;;;5071571;28;20405;-69
2023/09/30 02:39:09;;;;;;;6.70;2.87;;;13.80;99.90;;;;;;5073607;28;20181;-71
2023/09/30 02:41:35;;;;;;;15.00;3.83;;;13.80;99.90;;;;;;5074155;28;20485;-70
2023/09/30 02:44:01;;;;;;;6.77;2.67;;;13.70;99.90;;;;;;5074068;28;20555;-70
2023/09/30 02:46:28;;;;;;;7.40;3.30;;;13.70;99.90;;;;;;5073211;28;21002;-68
2023/09/30 02:48:53;;;;;;;11.13;3.20;;;13.70;99.90;;;;;;5071892;28;20879;-69
2023/09/30 02:51:19;;;;;;;4.70;3.03;;;13.70;99.90;;;;;;5071650;28;20421;-69
2023/09/30 02:53:48;;;;;;;9.23;2.80;;;13.70;99.90;;;;;;5071813;28;20421;-70
2023/09/30 02:56:13;;;;;;;5.70;3.07;;;13.70;99.90;;;;;;5071525;28;20829;-68
2023/09/30 02:58:40;;;;;;;8.30;3.50;;;13.70;99.90;;;;;;5071750;28;20509;-68
2023/09/30 03:01:06;;;;;;;8.00;3.17;;;13.70;99.90;;;;;;5071413;28;20202;-69
2023/09/30 03:03:33;;;;;;;11.63;4.43;;;13.60;99.90;;;;;;5071253;28;20432;-68
2023/09/30 03:06:00;;;;;;;10.50;2.93;;;13.60;99.90;;;;;;5071465;28;20721;-69
2023/09/30 03:08:26;;;;;;;7.27;2.70;;;13.60;99.90;;;;;;5071292;28;20539;-68
2023/09/30 03:10:52;;;;;;;6.73;3.03;;;13.50;99.90;;;;;;5071285;28;20497;-68
2023/09/30 03:13:18;;;;;;;6.50;3.10;;;13.60;99.90;;;;;;5070907;28;20233;-68
2023/09/30 03:15:44;;;;;;;16.87;3.60;;;13.60;99.90;;;;;;5071218;28;20879;-69
2023/09/30 03:18:11;;;;;;;14.23;3.70;;;13.50;99.90;;;;;;5090314;28;20438;-70
2023/09/30 03:20:40;;;;;;;9.13;6.07;;;13.50;99.90;;;;;;5091316;28;20499;-70
2023/09/30 03:23:06;;;;;;;8.33;3.93;;;13.50;99.90;;;;;;5089372;28;20957;-69
2023/09/30 03:25:32;;;;;;;8.57;3.53;;;13.50;99.90;;;;;;5071320;28;20512;-69
2023/09/30 03:27:58;;;;;;;8.17;3.20;;;13.50;99.90;;;;;;5071024;28;20326;-69
2023/09/30 03:30:24;;;;;;;5.67;2.80;;;13.40;99.90;;;;;;5053000;28;20498;-70
2023/09/30 03:32:50;;;;;;;8.63;3.73;;;13.40;99.90;;;;;;5086911;28;20689;-69
2023/09/30 03:35:18;;;;;;;10.27;3.60;;;13.40;99.90;;;;;;5071357;28;20444;-70
2023/09/30 03:37:44;;;;;;;6.57;3.80;;;13.40;99.90;;;;;;5070941;28;20530;-69
2023/09/30 03:40:14;;;;;;;7.60;3.70;;;13.30;99.90;;;;;;5071005;28;20424;-69
2023/09/30 03:42:42;;;;;;;13.97;4.03;;;13.30;99.90;;;;;;5070318;28;20518;-70
2023/09/30 03:45:08;;;;;;;12.73;4.10;;;13.40;99.90;;;;;;5070790;28;20466;-69
2023/09/30 03:47:36;;;;;;;8.53;4.20;;;13.40;99.90;;;;;;5070609;28;20982;-69
2023/09/30 03:50:03;;;;;;;9.37;3.57;;;13.30;99.90;;;;;;5070217;28;20408;-69
2023/09/30 03:52:29;;;;;;;8.57;3.63;;;13.20;99.90;;;;;;5079037;28;20774;-70
2023/09/30 03:54:54;;;;;;;8.00;4.57;;;13.30;99.90;;;;;;5070497;28;20424;-69
2023/09/30 03:57:20;;;;;;;15.20;3.83;;;13.20;99.90;;;;;;5079149;28;20425;-71
2023/09/30 03:59:46;;;;;;;9.47;3.83;;;13.20;99.90;;;;;;5070617;28;20260;-71
2023/09/30 04:02:12;;;;;;;8.40;3.00;;;13.20;99.90;;;;;;5070401;28;20674;-70
2023/09/30 04:04:38;;;;;;;8.23;4.47;;;13.20;99.90;;;;;;5058049;28;20922;-70
2023/09/30 04:07:07;;;;;;;8.90;3.70;;;13.20;99.90;;;;;;5072877;28;20421;-70
2023/09/30 04:09:33;;;;;;;14.20;4.70;;;13.20;99.90;;;;;;5083924;28;20173;-70
2023/09/30 04:11:58;;;;;;;8.07;3.53;;;13.10;99.90;;;;;;5055663;28;20867;-69
2023/09/30 04:14:25;;;;;;;11.30;3.40;;;13.10;99.90;;;;;;5070272;28;20468;-69
2023/09/30 04:16:50;;;;;;;7.33;3.50;;;13.10;99.90;;;;;;5070173;28;20650;-71
2023/09/30 04:19:16;;;;;;;10.43;4.30;;;13.20;99.90;;;;;;5070333;28;20603;-68
2023/09/30 04:21:42;;;;;;;16.33;4.10;;;13.10;99.90;;;;;;5070331;28;20503;-69
2023/09/30 04:24:09;;;;;;;7.63;3.00;;;13.10;99.90;;;;;;5070244;28;20194;-69
2023/09/30 04:26:34;;;;;;;10.37;4.57;;;13.10;99.90;;;;;;5070343;28;20901;-68
2023/09/30 04:29:01;;;;;;;5.57;4.30;;;13.00;99.90;;;;;;5070150;28;20463;-69
2023/09/30 04:31:28;;;;;;;11.03;4.00;;;13.00;99.90;;;;;;5070802;28;20174;-69
2023/09/30 04:33:54;;;;;;;11.50;3.80;;;13.00;99.90;;;;;;5086290;28;20435;-69
2023/09/30 04:36:21;;;;;;;10.80;4.40;;;12.90;99.90;;;;;;5070582;28;20420;-68
2023/09/30 04:38:47;;;;;;;13.90;4.87;;;12.90;99.90;;;;;;5070253;28;20536;-69
2023/09/30 04:41:13;;;;;;;7.67;4.20;;;12.90;99.90;;;;;;5070053;28;20420;-68
2023/09/30 04:43:39;;;;;;;7.83;3.80;;;12.90;99.90;;;;;;5069744;28;20249;-68
2023/09/30 04:46:07;;;;;;;10.90;3.87;;;12.90;99.90;;;;;;5069969;28;20235;-68
2023/09/30 04:48:32;;;;;;;7.53;4.03;;;12.80;99.90;;;;;;5056626;28;20809;-69
2023/09/30 04:50:58;;;;;;;8.03;3.73;;;12.80;99.90;;;;;;5081817;28;20421;-70
2023/09/30 04:53:23;;;;;;;9.57;4.00;;;12.70;99.90;;;;;;5055120;28;20198;-69
2023/09/30 04:55:50;;;;;;;11.63;4.30;;;12.70;99.90;;;;;;5090106;28;20201;-70
2023/09/30 04:58:16;;;;;;;9.43;4.10;;;12.70;99.90;;;;;;5087648;28;20748;-68
2023/09/30 05:00:42;;;;;;;20.30;4.93;;;12.80;99.90;;;;;;5085672;28;20657;-68
2023/09/30 05:03:08;;;;;;;11.07;3.90;;;12.70;99.90;;;;;;5093816;28;20458;-68
2023/09/30 05:05:35;;;;;;;8.60;3.83;;;12.70;99.90;;;;;;5094335;28;20415;-68
2023/09/30 05:08:01;;;;;;;13.77;4.30;;;12.70;99.90;;;;;;5093754;28;20638;-69
2023/09/30 05:10:27;;;;;;;7.63;4.20;;;12.60;99.90;;;;;;5094098;28;20552;-69
2023/09/30 05:12:54;;;;;;;7.00;3.80;;;12.70;99.90;;;;;;5059945;28;20576;-70
2023/09/30 05:15:20;;;;;;;9.73;4.40;;;12.80;99.90;;;;;;5073362;28;20428;-69
2023/09/30 05:17:46;;;;;;;11.87;4.67;;;12.70;99.90;;;;;;5073663;28;20420;-68
2023/09/30 05:20:13;;;;;;;13.07;4.53;;;12.70;99.90;;;;;;5073606;28;20421;-68
2023/09/30 05:22:45;;;;;;;12.93;3.83;;;12.70;99.90;;;;;;5073425;28;20449;-69
2023/09/30 05:25:11;;;;;;;11.93;4.30;;;12.70;99.90;;;;;;5073518;28;20416;-69
2023/09/30 05:27:37;;;;;;;12.63;3.37;;;12.70;99.90;;;;;;5073304;28;20530;-71
2023/09/30 05:30:05;;;;;;;9.00;3.80;;;12.70;99.90;;;;;;5073204;28;20923;-69
2023/09/30 05:32:31;;;;;;;10.10;4.07;;;12.70;99.90;;;;;;5073275;28;20436;-70
2023/09/30 05:34:57;;;;;;;5.93;3.93;;;12.70;99.90;;;;;;5073422;28;20944;-70
2023/09/30 05:37:23;;;;;;;10.20;3.67;;;12.70;99.90;;;;;;5076127;28;20174;-70
2023/09/30 05:39:49;;;;;;;8.80;4.00;;;12.80;99.90;;;;;;5060456;28;20929;-69
2023/09/30 05:42:18;;;;;;;10.70;3.93;;;12.80;99.90;;;;;;5072808;28;20408;-69
2023/09/30 05:44:45;;;;;;;10.33;3.93;;;12.90;99.90;;;;;;5073148;28;20189;-69
2023/09/30 05:47:11;;;;;;;13.20;3.90;;;13.00;99.90;;;;;;5072888;28;20417;-70
2023/09/30 05:49:37;;;;;;;10.60;4.30;;;13.00;99.90;;;;;;5054979;28;20420;-70
2023/09/30 05:52:03;;;;;;;7.20;3.90;;;13.10;99.90;;;;;;5072720;28;20419;-70
2023/09/30 05:54:29;;;;;;;12.80;5.93;;;13.10;99.90;;;;;;5073007;28;20186;-69
2023/09/30 05:56:56;;;;;;;10.67;3.37;;;13.20;99.90;;;;;;5072698;28;20166;-71
2023/09/30 05:59:21;;;;;;;7.77;3.57;;;13.40;99.90;;;;;;5072998;28;20617;-70
2023/09/30 06:01:47;;;;;;;5.70;2.80;;;13.50;99.90;;;;;;5072562;28;20417;-70
2023/09/30 06:04:12;;;;;;;10.47;3.70;;;13.80;99.90;;;;;;5054564;28;20194;-69
2023/09/30 06:06:38;;;;;;;12.77;3.53;;;14.00;99.90;;;;;;5054693;28;20588;-70
2023/09/30 06:09:07;;;;;;;8.93;3.60;;;14.00;99.90;;;;;;5072507;28;20594;-70
2023/09/30 06:11:33;;;;;;;8.67;3.63;;;14.40;99.90;;;;;;5071800;28;20203;-69
2023/09/30 06:14:00;;;;;;;10.57;3.83;;;14.70;99.90;;;;;;5072014;28;20436;-68
2023/09/30 06:16:26;;;;;;;5.87;3.50;;;14.80;99.90;;;;;;5072645;28;20464;-69
2023/09/30 06:18:53;;;;;;;8.17;3.23;;;14.90;99.90;;;;;;5072480;28;20945;-69
2023/09/30 06:21:20;;;;;;;8.70;2.90;;;15.30;99.90;;;;;;5080828;28;20925;-69
2023/09/30 06:23:51;;;;;;;9.43;3.93;;;15.90;99.90;;;;;;5072079;28;20444;-69
2023/09/30 06:26:17;;;;;;;14.10;3.90;;;16.40;99.90;;;;;;5072307;28;20419;-69
2023/09/30 06:28:44;;;;;;;6.77;3.20;;;15.90;99.90;;;;;;5072213;28;20478;-69
2023/09/30 06:31:10;;;;;;;7.90;3.70;;;15.70;99.90;;;;;;5081640;28;20413;-70
2023/09/30 06:33:38;;;;;;;6.90;3.03;;;15.50;99.90;;;;;;5079332;28;20430;-70
2023/09/30 06:36:10;;;;;;;5.63;3.20;;;15.50;99.90;;;;;;5072059;28;20450;-68
2023/09/30 06:38:37;;;;;;;11.63;4.57;;;15.10;99.90;;;;;;5072240;28;20451;-71
2023/09/30 06:41:03;;;;;;;9.60;4.97;;;15.30;99.90;;;;;;5072776;28;20473;-69
2023/09/30 06:43:29;;;;;;;9.87;4.13;;;15.30;99.90;;;;;;5094382;22;20536;-72
2023/09/30 06:45:55;;;;;;;8.17;3.70;;;15.30;99.90;;;;;;5052966;28;20528;-73
2023/09/30 06:48:21;;;;;;;12.50;3.77;;;15.20;99.90;;;;;;5053206;28;20463;-71
2023/09/30 06:50:49;;;;;;;10.50;3.80;;;15.20;99.90;;;;;;5053373;28;20254;-72
2023/09/30 06:53:15;;;;;;;7.67;4.07;;;15.00;99.90;;;;;;5052660;28;20880;-74
2023/09/30 06:55:43;;;;;;;7.30;3.17;;;15.10;99.90;;;;;;5053706;28;20436;-72
2023/09/30 06:58:10;;;;;;;4.60;3.20;;;15.60;99.90;;;;;;5053518;28;20412;-72
2023/09/30 07:00:36;;;;;;;6.87;4.10;;;15.50;99.90;;;;;;5053778;28;20413;-72
2023/09/30 07:03:02;;;;;;;10.07;3.50;;;15.50;99.90;;;;;;5052995;28;20431;-73
2023/09/30 07:05:29;;;;;;;9.50;3.83;;;15.40;99.90;;;;;;5052954;28;20953;-72
2023/09/30 07:07:55;;;;;;;8.30;3.33;;;15.50;99.90;;;;;;5053621;28;20208;-72
2023/09/30 07:10:21;;;;;;;8.90;3.13;;;15.60;99.90;;;;;;5054093;28;20419;-72
2023/09/30 07:12:46;;;;;;;17.17;3.80;;;16.00;99.90;;;;;;5054203;28;20448;-73
2023/09/30 07:15:13;;;;;;;9.17;2.87;;;15.90;99.90;;;;;;5054492;28;21008;-73
2023/09/30 07:17:39;;;;;;;10.47;3.80;;;15.90;99.90;;;;;;5037365;28;20175;-72
2023/09/30 07:20:06;;;;;;;10.50;3.50;;;16.30;99.90;;;;;;5052996;28;20458;-72
2023/09/30 07:22:33;;;;;;;8.53;3.63;;;16.60;99.90;;;;;;5052425;28;20425;-73
2023/09/30 07:24:59;;;;;;;14.67;3.63;;;16.60;99.90;;;;;;5052266;28;20491;-73
2023/09/30 07:27:24;;;;;;;7.57;3.30;;;16.70;99.90;;;;;;5052425;28;20413;-73
2023/09/30 07:29:50;;;;;;;9.70;3.83;;;16.40;99.90;;;;;;5052660;28;20206;-73
2023/09/30 07:32:16;;;;;;;11.63;4.40;;;15.70;99.90;;;;;;5052287;28;20199;-72
2023/09/30 07:34:42;;;;;;;9.13;3.07;;;16.30;99.90;;;;;;5052365;28;20869;-72
2023/09/30 07:37:07;;;;;;;4.50;2.80;;;16.20;99.90;;;;;;5052248;28;20221;-72
2023/09/30 07:39:34;;;;;;;6.80;3.70;;;16.60;99.90;;;;;;5052508;28;20266;-73
2023/09/30 07:42:00;;;;;;;10.97;3.27;;;16.40;99.90;;;;;;5053470;28;20168;-74
2023/09/30 07:44:26;;;;;;;8.40;3.47;;;16.40;99.90;;;;;;5051923;28;20559;-72
2023/09/30 07:46:52;;;;;;;9.50;3.20;;;16.40;99.90;;;;;;5052508;28;20502;-73
2023/09/30 07:49:17;;;;;;;5.60;2.93;;;16.20;99.90;;;;;;5051955;28;20252;-72
2023/09/30 07:51:43;;;;;;;9.87;4.07;;;16.00;99.90;;;;;;5053035;28;20673;-73
2023/09/30 07:54:09;;;;;;;9.13;3.57;;;16.50;99.90;;;;;;5034105;28;20287;-73
2023/09/30 07:56:34;;;;;;;5.17;2.83;;;16.50;99.90;;;;;;5052215;28;20662;-73
2023/09/30 07:59:00;;;;;;;8.60;2.90;;;16.60;99.90;;;;;;5035135;28;20176;-73
2023/09/30 08:01:25;;;;;;;5.20;2.87;;;16.10;99.90;;;;;;5051849;28;20174;-72
2023/09/30 08:03:51;;;;;;;8.60;3.20;;;16.00;99.90;;;;;;5052180;28;20197;-73
2023/09/30 08:06:17;;;;;;;8.30;3.43;;;16.00;99.90;;;;;;5051995;28;20567;-72
2023/09/30 08:08:42;;;;;;;7.70;3.30;;;15.60;99.90;;;;;;5051927;28;20191;-73
2023/09/30 08:11:08;;;;;;;10.50;4.33;;;15.60;99.90;;;;;;5051842;28;20180;-72
2023/09/30 08:13:34;;;;;;;8.50;3.73;;;15.70;99.90;;;;;;5051732;28;20179;-72
2023/09/30 08:16:00;;;;;;;6.97;3.10;;;16.00;99.90;;;;;;5051531;28;20500;-73
2023/09/30 08:18:25;;;;;;;9.07;3.50;;;16.10;99.90;;;;;;5051358;28;20777;-73
2023/09/30 08:20:51;;;;;;;8.40;3.37;;;16.30;99.90;;;;;;5051565;28;20207;-73
2023/09/30 08:23:17;;;;;;;14.70;3.37;;;16.50;99.90;;;;;;5051215;28;20178;-73
2023/09/30 08:25:42;;;;;;;5.30;3.00;;;16.50;99.90;;;;;;5052268;28;20199;-73
2023/09/30 08:28:09;;;;;;;5.17;2.93;;;16.60;99.90;;;;;;5043489;28;20261;-72
2023/09/30 08:30:35;;;;;;;13.47;3.43;;;16.40;99.90;;;;;;5031644;28;20425;-72
2023/09/30 08:33:03;;;;;;;5.40;2.63;;;16.40;99.90;;;;;;5031453;28;20410;-73
2023/09/30 08:35:29;;;;;;;8.90;3.00;;;16.50;99.90;;;;;;5030874;28;20462;-73
2023/09/30 08:37:55;;;;;;;8.93;2.83;;;16.80;99.90;;;;;;5031779;28;20420;-73
2023/09/30 08:40:21;;;;;;;9.53;3.03;;;17.60;99.90;;;;;;5031689;28;20482;-72
2023/09/30 08:42:52;;;;;;;9.57;3.43;;;17.10;99.90;;;;;;5031509;28;20181;-72
2023/09/30 08:45:18;;;;;;;11.40;3.63;;;16.70;99.90;;;;;;5031394;28;20980;-72
2023/09/30 08:47:45;;;;;;;7.13;2.60;;;17.20;99.90;;;;;;5031146;28;20456;-72
2023/09/30 08:50:12;;;;;;;5.13;2.03;;;17.00;99.90;;;;;;5031926;28;20421;-72
2023/09/30 08:52:43;;;;;;;8.43;2.83;;;17.40;99.90;;;;;;5039981;28;20412;-72
2023/09/30 08:55:09;;;;;;;5.53;3.03;;;17.60;99.90;;;;;;5040461;28;20441;-72
2023/09/30 08:57:42;;;;;;;5.10;2.90;;;18.30;99.90;;;;;;5040916;28;20437;-72
2023/09/30 09:00:12;;;;;;;10.70;2.90;;;18.00;99.90;;;;;;5037449;28;20413;-75
2023/09/30 09:02:39;;;;;;;7.93;2.50;;;17.50;99.90;;;;;;5032281;28;20408;-72
2023/09/30 09:05:06;;;;;;;7.97;2.57;;;17.40;99.90;;;;;;5032047;28;20455;-75
2023/09/30 09:07:33;;;;;;;4.73;2.50;;;17.60;99.90;;;;;;5031927;28;20457;-74
2023/09/30 09:10:06;;;;;;;6.63;2.83;;;18.80;99.90;;;;;;5032000;28;20426;-75
2023/09/30 09:12:34;;;;;;;5.53;2.37;;;18.80;99.90;;;;;;5033016;28;20811;-74
2023/09/30 09:15:00;;;;;;;9.23;2.77;;;18.80;99.90;;;;;;5032538;28;20433;-73
2023/09/30 09:17:43;;;;;;;7.23;2.97;;;18.60;99.90;;;;;;5013341;28;20465;-73
2023/09/30 09:20:20;;;;;;;6.23;2.80;;;19.60;99.90;;;;;;5031544;28;20169;-73
2023/09/30 09:22:47;;;;;;;7.20;2.40;;;19.90;99.90;;;;;;5026256;28;20424;-74
2023/09/30 09:25:13;;;;;;;6.53;2.47;;;19.20;99.90;;;;;;5051177;28;20432;-73
2023/09/30 09:27:39;;;;;;;11.80;3.13;;;18.90;99.90;;;;;;5050860;28;20483;-74
2023/09/30 09:30:21;;;;;;;5.00;2.43;;;18.50;99.90;;;;;;5051054;28;20284;-73
2023/09/30 09:33:04;;;;;;;9.27;3.53;;;19.20;99.90;;;;;;5050636;28;20178;-71
2023/09/30 09:35:33;;;;;;;6.80;2.47;;;19.10;99.90;;;;;;5050665;28;20448;-72
2023/09/30 09:38:05;;;;;;;7.57;2.60;;;19.70;99.90;;;;;;5050812;28;20970;-73
2023/09/30 09:40:33;;;;;;;5.63;2.40;;;19.30;99.90;;;;;;5050920;28;20408;-73
2023/09/30 09:42:59;;;;;;;7.37;2.20;;;20.20;99.90;;;;;;5050551;28;20808;-71
2023/09/30 09:45:26;;;;;;;5.63;3.03;;;20.30;99.90;;;;;;5050364;28;20823;-74
2023/09/30 09:47:53;;;;;;;8.47;2.40;;;19.60;99.90;;;;;;5053281;28;20969;-72
2023/09/30 09:50:21;;;;;;;8.10;2.50;;;19.00;99.90;;;;;;5054091;28;20417;-73
2023/09/30 09:52:51;;;;;;;7.73;3.27;;;18.70;99.90;;;;;;5054339;28;20441;-73
2023/09/30 09:55:18;;;;;;;7.40;2.40;;;19.00;99.90;;;;;;5054419;28;20432;-72
2023/09/30 09:57:45;;;;;;;7.73;2.30;;;18.90;99.90;;;;;;5055479;28;20423;-73
2023/09/30 10:00:23;;;;;;;7.70;2.43;;;19.30;99.90;;;;;;5057762;28;20426;-73
2023/09/30 10:02:50;;;;;;;5.40;2.80;;;19.40;99.90;;;;;;5058033;28;20414;-73
2023/09/30 10:05:18;;;;;;;7.27;2.77;;;18.70;99.90;;;;;;5056629;28;20764;-74
2023/09/30 10:07:57;;;;;;;6.70;2.30;;;19.30;99.90;;;;;;5057055;28;20489;-74
2023/09/30 10:10:24;;;;;;;8.30;2.53;;;19.40;99.90;;;;;;5055485;28;20875;-73
2023/09/30 10:12:50;;;;;;;5.97;2.07;;;19.90;99.90;;;;;;5056102;28;20415;-73
2023/09/30 10:15:25;;;;;;;10.07;2.80;;;19.70;99.90;;;;;;5055737;28;20464;-73
2023/09/30 10:17:56;;;;;;;5.60;2.60;;;19.60;99.90;;;;;;5057043;28;20443;-73
2023/09/30 10:20:28;;;;;;;5.47;2.40;;;19.50;99.90;;;;;;5058124;28;20422;-73
2023/09/30 10:23:25;;;;;;;3.57;1.93;;;19.70;99.90;;;;;;5055002;28;20418;-74
2023/09/30 10:26:13;;;;;;;12.73;2.77;;;19.80;99.90;;;;;;5054602;28;20421;-75
2023/09/30 10:28:49;;;;;;;4.33;2.17;;;19.50;99.90;;;;;;5053961;28;20467;-73
2023/09/30 10:31:16;;;;;;;6.33;2.23;;;19.60;99.90;;;;;;5054125;28;20424;-74
2023/09/30 10:34:00;;;;;;;6.03;2.07;;;20.00;99.90;;;;;;5053439;28;20422;-72
2023/09/30 10:36:32;;;;;;;10.07;2.20;;;20.10;99.90;;;;;;5053618;28;20410;-72
2023/09/30 10:38:57;;;;;;;5.80;2.03;;;19.00;99.90;;;;;;5054231;28;20911;-73
2023/09/30 10:41:50;;;;;;;6.70;2.10;;;18.90;99.90;;;;;;5053712;28;20467;-73
2023/09/30 10:44:29;;;;;;;6.73;2.00;;;19.20;99.90;;;;;;5053333;28;20220;-73
2023/09/30 10:46:57;;;;;;;5.70;1.63;;;18.60;99.90;;;;;;5053788;28;20861;-75
2023/09/30 10:49:23;;;;;;;11.10;2.50;;;18.30;99.90;;;;;;5054722;28;20449;-73
2023/09/30 10:51:56;;;;;;;6.17;1.97;;;18.50;99.90;;;;;;5054885;28;20763;-75
2023/09/30 10:54:24;;;;;;;6.87;1.93;;;18.60;99.90;;;;;;5053850;28;20205;-73
2023/09/30 10:56:50;;;;;;;9.93;1.83;;;18.70;99.90;;;;;;5053605;28;20424;-74
2023/09/30 10:59:19;;;;;;;6.63;2.20;;;18.70;99.90;;;;;;5052687;28;20914;-74
2023/09/30 11:01:46;;;;;;;3.40;2.20;;;18.80;99.90;;;;;;5053620;28;20176;-74
2023/09/30 11:04:11;;;;;;;4.47;2.00;;;19.00;99.90;;;;;;5053066;28;20434;-73
2023/09/30 11:06:40;;;;;;;4.90;1.87;;;19.00;99.90;;;;;;5053381;28;20420;-74
2023/09/30 11:09:12;;;;;;;6.93;2.27;;;19.10;99.90;;;;;;5053082;28;20208;-73
2023/09/30 11:11:42;;;;;;;3.83;1.80;;;18.90;99.90;;;;;;5053050;28;20428;-73
2023/09/30 11:14:28;;;;;;;7.90;2.53;;;19.10;99.90;;;;;;5052781;28;20840;-73
2023/09/30 11:16:56;;;;;;;5.90;2.17;;;19.00;99.90;;;;;;5052902;28;20409;-72
2023/09/30 11:19:23;;;;;;;3.93;1.57;;;19.10;99.90;;;;;;5053637;28;20411;-74
2023/09/30 11:21:51;;;;;;;4.90;2.10;;;19.50;99.90;;;;;;5052887;28;20422;-73
2023/09/30 11:24:17;;;;;;;5.90;2.40;;;19.90;99.90;;;;;;5052574;28;20912;-72
2023/09/30 11:26:43;;;;;;;5.77;1.93;;;20.00;99.90;;;;;;5052968;28;20559;-73
2023/09/30 11:29:12;;;;;;;3.37;2.00;;;20.00;99.90;;;;;;5052554;28;20278;-73
2023/09/30 11:31:38;;;;;;;5.80;2.57;;;19.50;99.90;;;;;;5052284;28;20408;-73
2023/09/30 11:34:04;;;;;;;8.90;2.60;;;19.60;99.90;;;;;;5052346;28;20435;-73
2023/09/30 11:36:33;;;;;;;5.60;1.70;;;19.70;99.90;;;;;;5052030;28;20414;-71
2023/09/30 11:39:02;;;;;;;8.53;2.63;;;19.70;99.90;;;;;;5052411;28;20422;-72
2023/09/30 11:41:36;;;;;;;4.30;2.20;;;19.50;99.90;;;;;;5052032;28;20775;-72
2023/09/30 11:44:04;;;;;;;8.20;2.77;;;19.20;99.90;;;;;;5051619;28;20448;-72
2023/09/30 11:46:33;;;;;;;4.07;2.13;;;19.30;99.90;;;;;;5051992;28;20444;-72
2023/09/30 11:49:05;;;;;;;7.30;2.10;;;19.20;99.90;;;;;;5051730;28;20872;-72
2023/09/30 11:51:46;;;;;;;6.10;2.50;;;19.00;99.90;;;;;;5033900;28;20416;-72
2023/09/30 11:54:14;;;;;;;4.17;2.00;;;18.80;99.90;;;;;;5052085;28;20935;-73
2023/09/30 11:56:40;;;;;;;6.53;2.40;;;18.80;99.90;;;;;;5052062;28;21024;-73
2023/09/30 11:59:05;;;;;;;6.87;2.37;;;18.80;99.90;;;;;;5052179;28;20420;-72
2023/09/30 12:01:32;;;;;;;3.07;1.83;;;18.80;99.90;;;;;;5051796;28;20177;-72
2023/09/30 12:03:59;;;;;;;4.03;2.37;;;18.70;99.90;;;;;;5051961;28;20548;-72
2023/09/30 12:06:25;;;;;;;6.00;2.03;;;18.60;99.90;;;;;;5059608;28;20419;-72
2023/09/30 12:08:51;;;;;;;7.63;1.93;;;18.70;99.90;;;;;;5058336;28;20473;-73
2023/09/30 12:11:18;;;;;;;7.43;2.90;;;18.80;99.90;;;;;;5057822;28;20172;-73
2023/09/30 12:13:44;;;;;;;7.67;2.17;;;18.60;99.90;;;;;;5057531;28;20461;-73
2023/09/30 12:16:12;;;;;;;9.87;2.43;;;18.80;99.90;;;;;;5051805;28;20411;-73
2023/09/30 12:18:38;;;;;;;6.20;2.33;;;18.70;99.90;;;;;;5052030;28;20426;-74
2023/09/30 12:21:06;;;;;;;4.30;2.10;;;18.90;99.90;;;;;;5051921;28;20430;-73
2023/09/30 12:23:32;;;;;;;4.43;2.30;;;18.90;99.90;;;;;;5051350;28;20420;-72
2023/09/30 12:25:57;;;;;;;4.37;1.80;;;19.10;99.90;;;;;;5051487;28;20769;-72
2023/09/30 12:28:23;;;;;;;3.97;1.53;;;19.20;99.90;;;;;;5051337;28;20256;-74
2023/09/30 12:30:48;;;;;;;5.23;1.93;;;19.20;99.90;;;;;;5052193;28;20160;-73
2023/09/30 12:33:14;;;;;;;6.10;1.97;;;19.30;99.90;;;;;;5051721;28;20637;-73
2023/09/30 12:35:40;;;;;;;4.93;1.60;;;19.20;99.90;;;;;;5051579;28;20200;-73
2023/09/30 12:38:05;;;;;;;5.20;1.80;;;19.20;99.90;;;;;;5051465;28;20612;-73
2023/09/30 12:40:31;;;;;;;5.87;2.20;;;19.30;99.90;;;;;;5051365;28;20219;-72
2023/09/30 12:42:57;;;;;;;6.27;1.80;;;19.50;99.90;;;;;;5051004;28;20201;-72
2023/09/30 12:45:23;;;;;;;8.97;2.20;;;19.40;99.90;;;;;;5033561;28;20638;-72